Time;durP1;ratioP1;P1;durP2;ratioP2;P2;SDS_P1;SDS_P2;PMS_P1;PMS_P2;Temp;Humidity;BMP_temperature;BMP_pressure;BME280_temperature;BME280_humidity;BME280_pressure;Samples;Min_cycle;Max_cycle;Signal;HPM_P1;HPM_P2
2022/10/07 00:00:45;;;;;;;0.28;0.10;;;10.80;99.90;;;;;;5037823;28;20083;-81
2022/10/07 00:03:11;;;;;;;0.00;0.00;;;10.80;99.90;;;;;;5038253;28;20396;-81
2022/10/07 00:05:36;;;;;;;0.00;0.00;;;10.70;99.90;;;;;;5038378;28;20037;-82
2022/10/07 00:08:02;;;;;;;0.03;0.00;;;10.70;99.90;;;;;;5037842;28;20044;-82
2022/10/07 00:10:28;;;;;;;0.00;0.00;;;10.80;99.90;;;;;;5044559;28;20044;-81
2022/10/07 00:12:54;;;;;;;0.00;0.00;;;10.70;99.90;;;;;;5065359;28;20044;-81
2022/10/07 00:15:20;;;;;;;0.00;0.00;;;10.70;99.90;;;;;;5060557;28;20049;-81
2022/10/07 00:17:45;;;;;;;0.00;0.00;;;10.80;99.90;;;;;;5054012;28;20043;-82
2022/10/07 00:20:11;;;;;;;0.40;0.25;;;10.80;99.90;;;;;;5037134;28;20049;-82
2022/10/07 00:22:37;;;;;;;0.35;0.13;;;10.80;99.90;;;;;;5037256;28;20099;-82
2022/10/07 00:25:04;;;;;;;4.72;0.65;;;10.80;99.90;;;;;;5054443;28;20128;-82
2022/10/07 00:27:29;;;;;;;1.42;0.15;;;10.80;99.90;;;;;;5037496;28;20045;-82
2022/10/07 00:29:55;;;;;;;2.08;0.60;;;10.80;99.90;;;;;;5054013;28;20052;-82
2022/10/07 00:32:21;;;;;;;0.00;0.00;;;10.80;99.90;;;;;;5037243;28;20045;-82
2022/10/07 00:34:46;;;;;;;0.00;0.00;;;10.80;99.90;;;;;;5054250;28;20451;-82
2022/10/07 00:37:12;;;;;;;0.00;0.00;;;10.80;99.90;;;;;;5037731;28;20443;-82
2022/10/07 00:39:38;;;;;;;0.00;0.00;;;10.80;99.90;;;;;;5053431;28;20045;-82
2022/10/07 00:42:03;;;;;;;0.00;0.00;;;11.00;99.90;;;;;;5053561;28;20087;-82
2022/10/07 00:44:40;;;;;;;0.90;0.32;;;10.80;99.90;;;;;;5053175;28;20040;-82
2022/10/07 00:47:15;;;;;;;0.00;0.00;;;10.70;99.90;;;;;;5036611;28;20057;-82
2022/10/07 00:49:55;;;;;;;0.20;0.20;;;10.70;99.90;;;;;;5037558;28;20132;-82
2022/10/07 00:52:25;;;;;;;0.00;0.00;;;10.70;99.90;;;;;;5053942;28;20419;-81
2022/10/07 00:54:53;;;;;;;0.10;0.03;;;10.70;99.90;;;;;;5053294;28;20041;-82
2022/10/07 00:57:25;;;;;;;0.00;0.00;;;10.70;99.90;;;;;;5036694;28;20052;-82
2022/10/07 00:59:53;;;;;;;0.00;0.00;;;10.60;99.90;;;;;;5053114;28;20045;-82
2022/10/07 01:02:19;;;;;;;0.00;0.00;;;10.60;99.90;;;;;;5037007;28;20370;-82
2022/10/07 01:04:45;;;;;;;0.10;0.00;;;10.70;99.90;;;;;;5036524;28;20047;-82
2022/10/07 01:07:11;;;;;;;0.52;0.32;;;10.70;99.90;;;;;;5036101;28;20083;-82
2022/10/07 01:09:37;;;;;;;0.00;0.00;;;10.70;99.90;;;;;;5053084;28;20072;-82
2022/10/07 01:12:15;;;;;;;0.00;0.00;;;10.70;99.90;;;;;;5036398;28;20551;-82
2022/10/07 01:15:02;;;;;;;0.00;0.00;;;10.60;99.90;;;;;;5037245;28;20055;-82
2022/10/07 01:17:43;;;;;;;0.00;0.00;;;10.60;99.90;;;;;;5052853;28;20572;-81
2022/10/07 01:20:19;;;;;;;0.10;0.00;;;10.60;99.90;;;;;;5035964;28;20060;-81
2022/10/07 01:23:15;;;;;;;0.35;0.35;;;10.60;99.90;;;;;;5036248;28;20080;-81
2022/10/07 01:26:12;;;;;;;0.00;0.00;;;10.60;99.90;;;;;;5054454;28;20476;-81
2022/10/07 01:29:07;;;;;;;0.00;0.00;;;10.50;99.90;;;;;;5040351;28;20377;-81
2022/10/07 01:31:37;;;;;;;0.00;0.00;;;10.50;99.90;;;;;;5040855;28;20102;-81
2022/10/07 01:34:05;;;;;;;0.00;0.00;;;10.50;99.90;;;;;;5057631;28;20052;-81
2022/10/07 01:36:32;;;;;;;0.00;0.00;;;10.50;99.90;;;;;;5040367;28;20503;-81
2022/10/07 01:39:10;;;;;;;0.03;0.03;;;10.50;99.90;;;;;;5040422;28;20045;-81
2022/10/07 01:41:37;;;;;;;0.30;0.05;;;10.40;99.90;;;;;;5040396;28;20468;-81
2022/10/07 01:44:03;;;;;;;0.00;0.00;;;10.60;99.90;;;;;;5056902;28;20144;-81
2022/10/07 01:46:29;;;;;;;0.00;0.00;;;10.40;99.90;;;;;;5040294;28;20475;-81
2022/10/07 01:48:55;;;;;;;0.00;0.00;;;10.40;99.90;;;;;;5057260;28;20048;-81
2022/10/07 01:51:25;;;;;;;0.25;0.25;;;10.40;99.90;;;;;;5040316;28;20044;-81
2022/10/07 01:54:01;;;;;;;0.00;0.00;;;10.30;99.90;;;;;;5056694;28;20052;-81
2022/10/07 01:56:32;;;;;;;0.00;0.00;;;10.40;99.90;;;;;;5048075;28;20044;-81
2022/10/07 01:59:16;;;;;;;0.00;0.00;;;10.30;99.90;;;;;;5063111;28;20105;-81
2022/10/07 02:01:46;;;;;;;0.10;0.10;;;10.30;99.90;;;;;;5057048;28;20090;-81
2022/10/07 02:04:46;;;;;;;0.00;0.00;;;10.30;99.90;;;;;;5039925;28;20443;-81
2022/10/07 02:07:36;;;;;;;1.88;0.65;;;10.20;99.90;;;;;;5039472;28;20484;-81
2022/10/07 02:10:26;;;;;;;0.00;0.00;;;10.20;99.90;;;;;;5039573;28;20053;-81
2022/10/07 02:13:24;;;;;;;0.00;0.00;;;10.20;99.90;;;;;;5039576;28;20049;-81
2022/10/07 02:16:15;;;;;;;3.30;0.47;;;10.10;99.90;;;;;;5038801;28;20079;-81
2022/10/07 02:18:44;;;;;;;0.00;0.00;;;10.10;99.90;;;;;;5039833;28;20061;-81
2022/10/07 02:21:11;;;;;;;0.00;0.00;;;10.10;99.90;;;;;;5055749;28;20390;-81
2022/10/07 02:23:39;;;;;;;0.00;0.00;;;10.10;99.90;;;;;;5056579;28;20045;-81
2022/10/07 02:26:07;;;;;;;0.00;0.00;;;10.10;99.90;;;;;;5055846;28;20048;-81
2022/10/07 02:28:39;;;;;;;0.08;0.08;;;10.10;99.90;;;;;;5055698;28;20049;-81
2022/10/07 02:31:07;;;;;;;0.00;0.00;;;10.00;99.90;;;;;;5056168;28;20053;-81
2022/10/07 02:33:34;;;;;;;0.57;0.57;;;10.10;99.90;;;;;;5055460;28;20456;-81
2022/10/07 02:36:06;;;;;;;0.00;0.00;;;10.00;99.90;;;;;;5039692;28;20128;-81
2022/10/07 02:38:32;;;;;;;0.00;0.00;;;10.00;99.90;;;;;;5039343;28;20432;-81
2022/10/07 02:41:31;;;;;;;0.00;0.00;;;10.10;99.90;;;;;;5055637;28;20106;-81
2022/10/07 02:44:12;;;;;;;9.30;0.65;;;10.10;99.90;;;;;;5038744;28;20080;-81
2022/10/07 02:46:45;;;;;;;1.13;0.28;;;10.10;99.90;;;;;;5055135;28;20144;-81
2022/10/07 02:49:14;;;;;;;0.00;0.00;;;10.10;99.90;;;;;;5038866;28;20467;-81
2022/10/07 02:51:46;;;;;;;0.00;0.00;;;10.10;99.90;;;;;;5055742;28;20056;-81
2022/10/07 02:54:15;;;;;;;0.00;0.00;;;10.00;99.90;;;;;;5055694;28;20091;-81
2022/10/07 02:56:42;;;;;;;0.00;0.00;;;10.00;99.90;;;;;;5038729;28;20072;-81
2022/10/07 02:59:10;;;;;;;0.00;0.00;;;10.00;99.90;;;;;;5055255;28;20132;-81
2022/10/07 03:01:45;;;;;;;5.47;0.28;;;10.00;99.90;;;;;;5038543;28;20408;-81
2022/10/07 03:04:11;;;;;;;;;;;10.10;99.90;;;;;;5055724;28;20037;-81
2022/10/07 03:06:37;;;;;;;0.10;0.10;;;10.00;99.90;;;;;;5071505;28;20011;-81
2022/10/07 03:09:03;;;;;;;0.00;0.00;;;10.10;99.90;;;;;;5038738;28;20080;-81
2022/10/07 03:11:29;;;;;;;0.32;0.32;;;10.10;99.90;;;;;;5055340;28;20095;-81
2022/10/07 03:13:54;;;;;;;0.00;0.00;;;10.10;99.90;;;;;;5055112;28;20393;-81
2022/10/07 03:16:20;;;;;;;7.80;0.45;;;10.10;99.90;;;;;;5055197;28;20049;-81
2022/10/07 03:18:46;;;;;;;0.20;0.10;;;10.00;99.90;;;;;;5054978;28;20052;-81
2022/10/07 03:21:11;;;;;;;0.00;0.00;;;10.00;99.90;;;;;;5038512;28;20099;-81
2022/10/07 03:23:37;;;;;;;0.00;0.00;;;10.00;99.90;;;;;;5054962;28;20049;-81
2022/10/07 03:26:03;;;;;;;0.38;0.00;;;10.00;99.90;;;;;;5054918;28;20378;-81
2022/10/07 03:28:32;;;;;;;0.00;0.00;;;10.00;99.90;;;;;;5054850;28;20465;-81
2022/10/07 03:31:09;;;;;;;0.00;0.00;;;10.00;99.90;;;;;;5054785;28;20138;-81
2022/10/07 03:33:36;;;;;;;0.00;0.00;;;10.00;99.90;;;;;;5055048;28;20384;-81
2022/10/07 03:36:06;;;;;;;0.00;0.00;;;10.00;99.90;;;;;;5054854;28;20045;-81
2022/10/07 03:38:32;;;;;;;0.00;0.00;;;10.00;99.90;;;;;;5054967;28;20397;-81
2022/10/07 03:41:00;;;;;;;0.00;0.00;;;10.00;99.90;;;;;;5063135;28;20049;-82
2022/10/07 03:43:27;;;;;;;0.05;0.05;;;10.00;99.90;;;;;;5064197;28;20056;-82
2022/10/07 03:45:53;;;;;;;0.10;0.10;;;10.00;99.90;;;;;;5057896;28;20064;-81
2022/10/07 03:48:18;;;;;;;0.22;0.13;;;10.00;99.90;;;;;;5037729;28;20485;-81
2022/10/07 03:50:51;;;;;;;0.00;0.00;;;10.00;99.90;;;;;;5038421;28;20052;-81
2022/10/07 03:53:18;;;;;;;0.00;0.00;;;10.00;99.90;;;;;;5038789;28;20052;-82
2022/10/07 03:55:44;;;;;;;0.00;0.00;;;10.00;99.90;;;;;;5037750;28;20045;-81
2022/10/07 03:58:11;;;;;;;3.50;0.73;;;10.00;99.90;;;;;;5054263;28;20051;-81
2022/10/07 04:00:38;;;;;;;0.08;0.08;;;10.00;99.90;;;;;;5054477;28;20052;-81
2022/10/07 04:03:06;;;;;;;0.00;0.00;;;10.00;99.90;;;;;;5054277;28;20098;-81
2022/10/07 04:05:32;;;;;;;0.00;0.00;;;10.00;99.90;;;;;;5054215;28;20162;-81
2022/10/07 04:07:58;;;;;;;0.13;0.13;;;10.00;99.90;;;;;;5054389;28;20045;-81
2022/10/07 04:10:24;;;;;;;0.38;0.32;;;10.00;99.90;;;;;;5037443;28;20102;-82
2022/10/07 04:12:52;;;;;;;0.00;0.00;;;9.90;99.90;;;;;;5037455;28;20114;-81
2022/10/07 04:15:19;;;;;;;0.00;0.00;;;9.90;99.90;;;;;;5037416;28;20052;-81
2022/10/07 04:17:45;;;;;;;0.10;0.00;;;9.90;99.90;;;;;;5036918;28;20061;-81
2022/10/07 04:20:12;;;;;;;0.00;0.00;;;9.90;99.90;;;;;;5053950;28;20041;-81
2022/10/07 04:22:38;;;;;;;0.00;0.00;;;9.90;99.90;;;;;;5037267;28;20060;-81
2022/10/07 04:27:53;;;;;;;0.00;0.00;;;9.90;99.90;;;;;;5053643;28;20092;-81
2022/10/07 04:30:20;;;;;;;0.10;0.10;;;9.90;99.90;;;;;;5053619;28;20040;-81
2022/10/07 04:32:48;;;;;;;0.00;0.00;;;9.90;99.90;;;;;;5053659;28;20049;-81
2022/10/07 04:35:14;;;;;;;0.10;0.10;;;9.90;99.90;;;;;;5053605;28;20053;-81
2022/10/07 04:37:42;;;;;;;0.10;0.10;;;9.90;99.90;;;;;;5053692;28;20381;-81
2022/10/07 04:40:08;;;;;;;0.17;0.17;;;9.90;99.90;;;;;;5037113;28;20037;-81
2022/10/07 04:45:19;;;;;;;1.17;0.00;;;9.80;99.90;;;;;;5053837;28;20057;-81
2022/10/07 04:47:45;;;;;;;0.10;0.10;;;9.80;99.90;;;;;;5053127;28;20049;-81
2022/10/07 04:50:12;;;;;;;0.03;0.00;;;9.80;99.90;;;;;;5036525;28;20049;-81
2022/10/07 04:52:44;;;;;;;0.32;0.32;;;9.80;99.90;;;;;;5036890;28;20044;-81
2022/10/07 04:55:11;;;;;;;4.70;0.55;;;9.80;99.90;;;;;;5053341;28;20037;-81
2022/10/07 04:57:37;;;;;;;0.00;0.00;;;9.70;99.90;;;;;;5053257;28;20041;-81
2022/10/07 05:00:04;;;;;;;0.20;0.20;;;9.80;99.90;;;;;;5036051;28;20049;-81
2022/10/07 05:02:30;;;;;;;0.00;0.00;;;9.80;99.90;;;;;;5052976;28;20049;-82
2022/10/07 05:04:55;;;;;;;0.22;0.20;;;9.80;99.90;;;;;;5036425;28;20134;-81
2022/10/07 05:07:21;;;;;;;0.10;0.10;;;9.80;99.90;;;;;;5053022;28;20063;-81
2022/10/07 05:09:47;;;;;;;0.00;0.00;;;9.70;99.90;;;;;;5036776;28;20540;-81
2022/10/07 05:12:13;;;;;;;0.00;0.00;;;9.70;99.90;;;;;;5053305;28;20392;-81
2022/10/07 05:14:42;;;;;;;0.00;0.00;;;9.70;99.90;;;;;;5036575;28;20049;-81
2022/10/07 05:17:07;;;;;;;0.00;0.00;;;9.70;99.90;;;;;;5036298;28;20488;-81
2022/10/07 05:19:33;;;;;;;0.00;0.00;;;9.70;99.90;;;;;;5053624;28;20059;-81
2022/10/07 05:21:59;;;;;;;0.00;0.00;;;9.70;99.90;;;;;;5036740;28;20037;-80
2022/10/07 05:24:25;;;;;;;0.00;0.00;;;9.70;99.90;;;;;;5063519;28;20068;-81
2022/10/07 05:26:51;;;;;;;2.28;0.45;;;9.70;99.90;;;;;;5068045;28;20045;-81
2022/10/07 05:29:16;;;;;;;0.32;0.30;;;9.70;99.90;;;;;;5058749;28;20045;-81
2022/10/07 05:31:42;;;;;;;0.00;0.00;;;9.70;99.90;;;;;;5036296;28;20497;-81
2022/10/07 05:34:07;;;;;;;1.80;0.22;;;9.60;99.90;;;;;;5036473;28;20044;-82
2022/10/07 05:36:34;;;;;;;2.35;0.55;;;9.60;99.90;;;;;;5036345;28;20045;-82
2022/10/07 05:38:59;;;;;;;0.00;0.00;;;9.70;99.90;;;;;;5052789;28;20049;-82
2022/10/07 05:41:27;;;;;;;0.10;0.10;;;9.70;99.90;;;;;;5053744;28;20492;-82
2022/10/07 05:43:53;;;;;;;0.47;0.45;;;9.60;99.90;;;;;;5052577;28;20615;-82
2022/10/07 05:46:19;;;;;;;1.40;0.80;;;9.70;99.90;;;;;;5052640;28;20144;-82
2022/10/07 05:48:46;;;;;;;0.35;0.35;;;9.60;99.90;;;;;;5035654;28;20053;-82
2022/10/07 05:51:13;;;;;;;0.00;0.00;;;9.70;99.90;;;;;;5052849;28;20041;-82
2022/10/07 05:53:40;;;;;;;1.88;0.47;;;9.60;99.90;;;;;;5035907;28;20481;-82
2022/10/07 05:56:07;;;;;;;0.35;0.35;;;9.60;99.90;;;;;;5035993;28;20045;-83
2022/10/07 05:58:37;;;;;;;0.10;0.00;;;9.60;99.90;;;;;;5036380;28;20057;-82
2022/10/07 06:01:05;;;;;;;0.00;0.00;;;9.70;99.90;;;;;;5052710;28;20045;-82
2022/10/07 06:03:32;;;;;;;0.10;0.00;;;9.70;99.90;;;;;;5052735;28;20041;-81
2022/10/07 06:05:59;;;;;;;0.43;0.43;;;9.70;99.90;;;;;;5035907;28;20041;-82
2022/10/07 06:08:26;;;;;;;0.00;0.00;;;9.70;99.90;;;;;;5036020;28;20084;-82
2022/10/07 06:13:37;;;;;;;0.00;0.00;;;9.70;99.90;;;;;;5056390;28;20480;-82
2022/10/07 06:16:08;;;;;;;0.20;0.20;;;9.70;99.90;;;;;;5056184;28;20100;-82
2022/10/07 06:18:37;;;;;;;0.25;0.25;;;9.70;99.90;;;;;;5056355;28;20508;-82
2022/10/07 06:21:03;;;;;;;0.00;0.00;;;9.70;99.90;;;;;;5056668;28;20041;-82
2022/10/07 06:23:29;;;;;;;0.00;0.00;;;9.70;99.90;;;;;;5056459;28;20037;-82
2022/10/07 06:26:00;;;;;;;0.47;0.13;;;9.70;99.90;;;;;;5056029;28;20091;-82
2022/10/07 06:28:31;;;;;;;0.00;0.00;;;9.70;99.90;;;;;;5056039;28;20049;-82
2022/10/07 06:30:57;;;;;;;0.00;0.00;;;9.80;99.90;;;;;;5039210;28;20440;-82
2022/10/07 06:33:22;;;;;;;0.00;0.00;;;9.90;99.90;;;;;;5039280;28;20052;-82
2022/10/07 06:35:48;;;;;;;0.00;0.00;;;9.80;99.90;;;;;;5039360;28;20481;-82
2022/10/07 06:38:15;;;;;;;0.08;0.03;;;9.90;99.90;;;;;;5039151;28;20045;-82
2022/10/07 06:40:41;;;;;;;0.00;0.00;;;9.90;99.90;;;;;;5039248;28;20050;-82
2022/10/07 06:43:07;;;;;;;0.20;0.10;;;9.90;99.90;;;;;;5038983;28;20088;-83
2022/10/07 06:45:33;;;;;;;0.00;0.00;;;9.90;99.90;;;;;;5055329;28;20138;-83
2022/10/07 06:47:59;;;;;;;0.00;0.00;;;10.00;99.90;;;;;;5055176;28;20056;-83
2022/10/07 06:50:25;;;;;;;1.73;0.70;;;10.00;99.90;;;;;;5055620;28;20041;-82
2022/10/07 06:52:51;;;;;;;0.00;0.00;;;10.10;99.90;;;;;;5055708;28;20037;-82
2022/10/07 06:55:16;;;;;;;1.52;0.20;;;10.10;99.90;;;;;;5055760;28;20138;-82
2022/10/07 06:57:42;;;;;;;1.55;0.80;;;10.20;99.90;;;;;;5055677;28;20083;-82
2022/10/07 07:00:09;;;;;;;0.10;0.00;;;10.30;99.90;;;;;;5039053;28;20051;-83
2022/10/07 07:02:34;;;;;;;0.00;0.00;;;10.40;99.90;;;;;;5038909;28;20138;-83
2022/10/07 07:05:03;;;;;;;2.55;0.65;;;10.50;99.90;;;;;;5055276;28;20048;-83
2022/10/07 07:07:29;;;;;;;0.00;0.00;;;10.60;99.90;;;;;;5052107;28;20033;-82
2022/10/07 07:09:55;;;;;;;0.45;0.30;;;10.70;99.90;;;;;;5068595;28;20042;-81
2022/10/07 07:12:24;;;;;;;0.10;0.00;;;10.70;99.90;;;;;;5060706;28;20094;-81
2022/10/07 07:14:50;;;;;;;0.00;0.00;;;10.70;99.90;;;;;;5038760;28;20047;-81
2022/10/07 07:17:17;;;;;;;0.00;0.00;;;10.70;99.90;;;;;;5038622;28;20091;-81
2022/10/07 07:19:43;;;;;;;1.75;0.00;;;10.60;99.90;;;;;;5038815;28;20061;-81
2022/10/07 07:22:09;;;;;;;0.00;0.00;;;10.70;99.90;;;;;;5038337;28;20072;-82
2022/10/07 07:24:34;;;;;;;0.20;0.20;;;10.70;99.90;;;;;;5037672;28;20057;-81
2022/10/07 07:27:00;;;;;;;0.00;0.00;;;10.80;99.90;;;;;;5038429;28;20120;-81
2022/10/07 07:29:26;;;;;;;0.00;0.00;;;10.80;99.90;;;;;;5054974;28;20139;-82
2022/10/07 07:31:52;;;;;;;0.22;0.22;;;10.90;99.90;;;;;;5038472;28;20139;-81
2022/10/07 07:34:18;;;;;;;1.10;0.73;;;10.90;99.90;;;;;;5038247;28;20099;-82
2022/10/07 07:36:47;;;;;;;0.95;0.65;;;11.00;99.90;;;;;;5055037;28;20146;-81
2022/10/07 07:39:15;;;;;;;0.00;0.00;;;11.00;99.90;;;;;;5038128;28;20065;-81
2022/10/07 07:41:45;;;;;;;0.00;0.00;;;11.20;99.90;;;;;;5054707;28;20182;-82
2022/10/07 07:44:13;;;;;;;0.00;0.00;;;11.20;99.90;;;;;;5038712;28;20409;-81
2022/10/07 07:46:47;;;;;;;0.25;0.15;;;11.20;99.90;;;;;;5037574;28;20442;-82
2022/10/07 07:49:13;;;;;;;0.00;0.00;;;11.30;99.90;;;;;;5037631;28;20060;-81
2022/10/07 07:51:41;;;;;;;0.28;0.28;;;11.40;99.90;;;;;;5055328;28;20098;-81
2022/10/07 07:54:08;;;;;;;0.52;0.52;;;11.40;99.90;;;;;;5037775;28;20092;-81
2022/10/07 07:56:33;;;;;;;12.73;1.30;;;11.50;99.90;;;;;;5038001;28;20515;-81
2022/10/07 07:59:00;;;;;;;0.00;0.00;;;11.70;99.90;;;;;;5055158;28;20041;-81
2022/10/07 08:01:30;;;;;;;0.10;0.00;;;11.80;99.90;;;;;;5054502;28;20053;-84
2022/10/07 08:03:56;;;;;;;0.00;0.00;;;11.90;99.90;;;;;;5037969;28;20096;-83
2022/10/07 08:06:23;;;;;;;0.00;0.00;;;12.00;99.90;;;;;;5037095;28;20056;-83
2022/10/07 08:08:50;;;;;;;0.00;0.00;;;12.00;99.90;;;;;;5053328;28;20056;-81
2022/10/07 08:11:18;;;;;;;0.00;0.00;;;12.00;99.90;;;;;;5037351;28;20057;-82
2022/10/07 08:13:45;;;;;;;1.85;0.88;;;12.10;99.90;;;;;;5070722;28;20049;-81
2022/10/07 08:16:15;;;;;;;0.00;0.00;;;12.20;99.90;;;;;;5054258;28;20064;-81
2022/10/07 08:18:43;;;;;;;0.10;0.10;;;12.30;99.90;;;;;;5054201;28;20053;-81
2022/10/07 08:21:09;;;;;;;0.40;0.40;;;12.50;99.90;;;;;;5053657;28;20041;-80
2022/10/07 08:23:36;;;;;;;0.20;0.20;;;12.50;99.90;;;;;;5037093;28;20489;-81
2022/10/07 08:26:03;;;;;;;1.48;0.65;;;12.60;99.90;;;;;;5053657;28;20068;-81
2022/10/07 08:28:30;;;;;;;0.00;0.00;;;12.70;99.90;;;;;;5036965;28;20060;-80
2022/10/07 08:31:01;;;;;;;0.32;0.32;;;12.70;99.90;;;;;;5052299;28;20049;-81
2022/10/07 08:33:32;;;;;;;0.00;0.00;;;12.80;99.90;;;;;;5037274;28;20060;-81
2022/10/07 08:35:59;;;;;;;0.00;0.00;;;13.00;99.90;;;;;;5035736;28;20440;-82
2022/10/07 08:38:36;;;;;;;0.08;0.00;;;13.00;99.90;;;;;;5053092;28;20047;-82
2022/10/07 08:41:07;;;;;;;0.03;0.00;;;13.00;99.90;;;;;;5053953;28;20049;-82
2022/10/07 08:43:35;;;;;;;0.52;0.20;;;13.10;99.90;;;;;;5033313;28;20053;-82
2022/10/07 08:46:03;;;;;;;0.00;0.00;;;13.30;99.90;;;;;;5033375;28;20041;-82
2022/10/07 08:48:35;;;;;;;0.13;0.00;;;13.60;99.90;;;;;;5016468;28;20060;-83
2022/10/07 08:51:23;;;;;;;0.00;0.00;;;13.80;99.90;;;;;;5033346;28;20053;-81
2022/10/07 08:53:53;;;;;;;0.10;0.10;;;14.10;99.90;;;;;;5051954;28;20064;-79
2022/10/07 08:56:22;;;;;;;0.17;0.17;;;14.30;99.90;;;;;;5053533;28;20123;-80
2022/10/07 08:59:08;;;;;;;0.20;0.10;;;14.60;99.90;;;;;;5051265;28;20053;-80
2022/10/07 09:02:12;;;;;;;0.47;0.20;;;15.00;99.90;;;;;;5017213;28;20508;-80
2022/10/07 09:05:05;;;;;;;0.20;0.00;;;15.30;99.90;;;;;;5033398;28;20052;-80
2022/10/07 09:07:33;;;;;;;0.77;0.30;;;15.70;99.90;;;;;;5066809;28;20045;-79
2022/10/07 09:10:04;;;;;;;0.00;0.00;;;15.80;99.90;;;;;;5033610;28;20033;-80
2022/10/07 09:12:56;;;;;;;0.35;0.10;;;15.90;99.90;;;;;;5033925;28;20038;-80
2022/10/07 09:15:44;;;;;;;0.00;0.00;;;16.20;99.90;;;;;;5032981;28;20046;-80
2022/10/07 09:18:21;;;;;;;0.10;0.10;;;16.30;99.90;;;;;;5016812;28;20048;-80
2022/10/07 09:20:55;;;;;;;0.10;0.10;;;16.30;99.90;;;;;;5033665;28;20057;-80
2022/10/07 09:23:29;;;;;;;0.00;0.00;;;16.40;99.90;;;;;;5033433;28;20393;-80
2022/10/07 09:25:55;;;;;;;0.00;0.00;;;16.40;99.90;;;;;;5033155;28;20049;-80
2022/10/07 09:28:27;;;;;;;0.43;0.32;;;16.60;99.90;;;;;;5033005;28;20128;-79
2022/10/07 09:30:52;;;;;;;0.60;0.32;;;16.50;99.90;;;;;;5033631;28;20186;-80
2022/10/07 09:33:21;;;;;;;0.00;0.00;;;16.50;99.90;;;;;;5033290;28;20508;-80
2022/10/07 09:36:10;;;;;;;0.08;0.03;;;16.50;99.90;;;;;;5066959;28;20107;-80
2022/10/07 09:38:37;;;;;;;0.17;0.08;;;16.60;99.90;;;;;;5032971;28;20086;-80
2022/10/07 09:41:18;;;;;;;0.10;0.10;;;16.60;99.90;;;;;;5033311;28;20057;-79
2022/10/07 09:43:58;;;;;;;0.93;0.40;;;16.80;99.90;;;;;;5032660;28;20493;-81
2022/10/07 09:46:46;;;;;;;0.08;0.08;;;16.90;99.90;;;;;;5033045;28;20049;-82
2022/10/07 09:49:27;;;;;;;0.00;0.00;;;17.00;99.90;;;;;;5047959;28;20409;-80
2022/10/07 09:52:13;;;;;;;0.00;0.00;;;17.00;99.90;;;;;;5070998;28;20056;-80
2022/10/07 09:54:39;;;;;;;0.00;0.00;;;17.00;99.90;;;;;;5040431;28;20048;-79
2022/10/07 09:57:33;;;;;;;0.00;0.00;;;17.10;99.90;;;;;;5040129;28;20041;-80
2022/10/07 10:00:10;;;;;;;0.00;0.00;;;17.20;99.90;;;;;;5040589;28;20132;-80
2022/10/07 10:02:37;;;;;;;0.00;0.00;;;17.30;99.90;;;;;;5056474;28;20374;-80
2022/10/07 10:05:03;;;;;;;0.00;0.00;;;17.40;99.90;;;;;;5056426;28;20055;-80
2022/10/07 10:07:35;;;;;;;0.00;0.00;;;17.50;99.90;;;;;;5056087;28;20045;-80
2022/10/07 10:10:04;;;;;;;0.28;0.28;;;17.60;99.90;;;;;;5040140;28;20515;-80
2022/10/07 10:12:45;;;;;;;0.00;0.00;;;17.90;99.90;;;;;;5056357;28;20051;-80
2022/10/07 10:15:41;;;;;;;0.35;0.30;;;18.00;99.90;;;;;;5056363;28;20480;-80
2022/10/07 10:18:52;;;;;;;0.00;0.00;;;18.20;99.90;;;;;;5039642;28;20049;-80
2022/10/07 10:21:29;;;;;;;0.00;0.00;;;18.30;99.90;;;;;;4999356;28;20098;-80
2022/10/07 10:24:00;;;;;;;0.32;0.32;;;18.30;99.90;;;;;;4982894;28;20053;-80
2022/10/07 10:26:46;;;;;;;0.00;0.00;;;18.20;99.90;;;;;;4998880;28;20096;-80
2022/10/07 10:29:55;;;;;;;0.00;0.00;;;18.20;99.90;;;;;;4999295;28;20128;-80
2022/10/07 10:32:26;;;;;;;0.00;0.00;;;18.30;99.90;;;;;;4903096;29;20056;-80
2022/10/07 10:35:15;;;;;;;4.72;0.55;;;18.50;99.90;;;;;;4903126;29;20115;-80
2022/10/07 10:37:40;;;;;;;0.00;0.00;;;18.70;99.90;;;;;;4903577;29;20040;-80
2022/10/07 10:40:44;;;;;;;0.00;0.00;;;18.80;99.90;;;;;;4903010;29;20425;-80
2022/10/07 10:43:23;;;;;;;0.10;0.10;;;18.80;99.90;;;;;;4847679;29;20132;-80
2022/10/07 10:46:14;;;;;;;0.00;0.00;;;18.90;99.90;;;;;;4847298;29;20189;-80
2022/10/07 10:48:46;;;;;;;1.08;0.98;;;19.10;99.90;;;;;;4846751;29;20501;-80
2022/10/07 10:51:24;;;;;;;0.00;0.00;;;19.10;99.90;;;;;;4854472;29;20055;-80
2022/10/07 10:53:57;;;;;;;0.47;0.28;;;19.10;99.90;;;;;;4900231;29;20067;-80
2022/10/07 10:56:41;;;;;;;0.00;0.00;;;19.10;99.90;;;;;;4900610;29;20070;-80
2022/10/07 10:59:28;;;;;;;0.10;0.00;;;19.20;99.90;;;;;;4883757;29;20057;-80
2022/10/07 11:02:13;;;;;;;0.15;0.15;;;19.10;99.90;;;;;;4868876;29;20063;-80
2022/10/07 11:04:44;;;;;;;;;;;18.90;99.90;;;;;;4885106;29;20057;-80
2022/10/07 11:07:23;;;;;;;0.15;0.08;;;18.50;99.90;;;;;;4952261;28;19922;-80
2022/10/07 11:09:58;;;;;;;0.25;0.25;;;18.30;99.90;;;;;;4960583;28;20142;-80
2022/10/07 11:12:42;;;;;;;0.00;0.00;;;18.40;99.90;;;;;;4960151;28;20086;-80
2022/10/07 11:15:23;;;;;;;0.25;0.25;;;18.60;99.90;;;;;;4960069;28;20086;-80
2022/10/07 11:17:51;;;;;;;0.00;0.00;;;18.60;99.90;;;;;;4976660;28;20055;-79
2022/10/07 11:20:30;;;;;;;0.17;0.17;;;18.70;99.90;;;;;;5023972;28;20060;-80
2022/10/07 11:23:27;;;;;;;1.55;0.30;;;18.90;99.90;;;;;;5040650;28;20057;-80
2022/10/07 11:25:58;;;;;;;0.00;0.00;;;18.90;99.90;;;;;;5056060;28;20435;-80
2022/10/07 11:28:29;;;;;;;0.00;0.00;;;19.10;99.90;;;;;;5038473;28;20453;-80
2022/10/07 11:31:20;;;;;;;0.00;0.00;;;19.00;99.90;;;;;;5055183;28;20101;-80
2022/10/07 11:33:53;;;;;;;0.32;0.32;;;18.90;99.90;;;;;;5055426;28;20400;-80
2022/10/07 11:36:29;;;;;;;13.90;0.70;;;18.80;99.90;;;;;;5055285;28;20071;-80
2022/10/07 11:38:55;;;;;;;5.05;0.45;;;18.90;99.90;;;;;;5038357;28;20044;-80
2022/10/07 11:41:26;;;;;;;8.18;0.73;;;18.80;99.90;;;;;;5054847;28;20063;-80
2022/10/07 11:43:55;;;;;;;0.10;0.10;;;18.60;99.90;;;;;;5055776;28;20435;-80
2022/10/07 11:46:53;;;;;;;0.00;0.00;;;18.40;99.90;;;;;;5054954;28;20091;-80
2022/10/07 11:49:29;;;;;;;0.20;0.20;;;18.30;99.90;;;;;;5051914;28;20053;-79
2022/10/07 11:52:09;;;;;;;0.00;0.00;;;18.20;99.90;;;;;;5055003;28;20040;-80
2022/10/07 11:54:48;;;;;;;0.00;0.00;;;18.30;99.90;;;;;;5054384;28;20408;-79
2022/10/07 11:57:20;;;;;;;0.00;0.00;;;18.50;99.90;;;;;;5054918;28;20063;-80
2022/10/07 11:59:49;;;;;;;1.25;0.43;;;18.60;99.90;;;;;;5054745;28;20045;-80
2022/10/07 12:02:27;;;;;;;0.00;0.00;;;18.70;99.90;;;;;;5036820;28;20060;-80
2022/10/07 12:04:56;;;;;;;0.00;0.00;;;19.00;99.90;;;;;;5054171;28;20481;-80
2022/10/07 12:07:31;;;;;;;0.00;0.00;;;19.10;99.90;;;;;;5054552;28;20511;-80
2022/10/07 12:10:02;;;;;;;0.00;0.00;;;19.40;99.90;;;;;;5037415;28;20187;-80
2022/10/07 12:12:44;;;;;;;0.00;0.00;;;19.70;99.90;;;;;;5054197;28;20056;-80
2022/10/07 12:15:31;;;;;;;0.00;0.00;;;19.50;99.90;;;;;;5053566;28;20428;-80
2022/10/07 12:18:03;;;;;;;0.05;0.05;;;19.20;99.90;;;;;;5054221;28;20449;-80
2022/10/07 12:20:51;;;;;;;0.00;0.00;;;19.00;99.90;;;;;;5053586;28;20048;-80
2022/10/07 12:23:17;;;;;;;0.68;0.10;;;18.80;99.90;;;;;;5053435;28;20396;-80
2022/10/07 12:25:45;;;;;;;0.00;0.00;;;18.80;99.90;;;;;;5053605;28;20124;-80
2022/10/07 12:28:29;;;;;;;0.00;0.00;;;18.80;99.90;;;;;;5053226;28;20128;-80
2022/10/07 12:31:00;;;;;;;0.00;0.00;;;18.70;99.90;;;;;;5053931;28;20059;-80
2022/10/07 12:33:31;;;;;;;0.00;0.00;;;18.60;99.90;;;;;;5037290;28;20550;-79
2022/10/07 12:35:57;;;;;;;0.75;0.45;;;18.50;99.90;;;;;;5053816;28;20057;-81
2022/10/07 12:38:30;;;;;;;0.00;0.00;;;18.50;99.90;;;;;;5053250;28;20127;-80
2022/10/07 12:41:20;;;;;;;0.00;0.00;;;18.30;99.90;;;;;;5036339;28;20095;-80
2022/10/07 12:43:53;;;;;;;0.00;0.00;;;18.20;99.90;;;;;;5037301;28;20392;-80
2022/10/07 12:46:22;;;;;;;0.00;0.00;;;18.00;99.90;;;;;;5053655;28;20115;-80
2022/10/07 12:48:57;;;;;;;0.75;0.52;;;17.90;99.90;;;;;;5053390;28;20053;-80
2022/10/07 12:51:36;;;;;;;;;;;17.90;99.90;;;;;;5054173;28;20139;-80
2022/10/07 12:54:08;;;;;;;0.00;0.00;;;18.00;99.90;;;;;;5053948;28;19921;-81
2022/10/07 12:56:34;;;;;;;0.00;0.00;;;18.10;99.90;;;;;;5036974;28;20044;-80
2022/10/07 13:02:10;;;;;;;0.00;0.00;;;18.10;99.90;;;;;;5053867;28;20049;-80
2022/10/07 13:05:13;;;;;;;0.40;0.40;;;18.00;99.90;;;;;;5053493;28;20045;-80
2022/10/07 13:08:13;;;;;;;0.10;0.10;;;18.10;99.90;;;;;;5036540;28;20041;-80
2022/10/07 13:11:06;;;;;;;0.00;0.00;;;18.30;99.90;;;;;;5037076;28;20048;-80
2022/10/07 13:13:50;;;;;;;0.55;0.20;;;18.30;99.90;;;;;;5053012;28;20088;-80
2022/10/07 13:16:37;;;;;;;0.00;0.00;;;18.30;99.90;;;;;;5036970;28;20049;-80
2022/10/07 13:19:18;;;;;;;0.00;0.00;;;18.20;99.90;;;;;;5053356;28;20098;-80
2022/10/07 13:22:13;;;;;;;0.00;0.00;;;18.20;99.90;;;;;;5052691;28;20048;-80
2022/10/07 13:24:46;;;;;;;;;;;18.20;99.90;;;;;;5037573;28;20045;-80
2022/10/07 13:27:30;;;;;;;0.00;0.00;;;18.20;99.90;;;;;;5053020;28;19925;-80